sensor_id;sensor_type;location;lat;lon;timestamp;P1;durP1;ratioP1;P2;durP2;ratioP2
46897;SDS011;32646;50.958;6.258;2023-04-25T00:00:53;10.18;;;3.40;;
46897;SDS011;32646;50.958;6.258;2023-04-25T00:03:19;13.57;;;3.72;;
46897;SDS011;32646;50.958;6.258;2023-04-25T00:05:46;11.95;;;3.25;;
46897;SDS011;32646;50.958;6.258;2023-04-25T00:08:13;10.57;;;3.70;;
46897;SDS011;32646;50.958;6.258;2023-04-25T00:10:39;9.23;;;3.60;;
46897;SDS011;32646;50.958;6.258;2023-04-25T00:13:06;9.85;;;3.53;;
46897;SDS011;32646;50.958;6.258;2023-04-25T00:15:33;9.27;;;3.22;;
46897;SDS011;32646;50.958;6.258;2023-04-25T00:17:59;12.30;;;3.60;;
46897;SDS011;32646;50.958;6.258;2023-04-25T00:20:26;10.70;;;3.50;;
46897;SDS011;32646;50.958;6.258;2023-04-25T00:22:53;10.18;;;3.45;;
46897;SDS011;32646;50.958;6.258;2023-04-25T00:25:19;10.35;;;3.65;;
46897;SDS011;32646;50.958;6.258;2023-04-25T00:27:46;8.80;;;3.35;;
46897;SDS011;32646;50.958;6.258;2023-04-25T00:30:13;9.52;;;3.55;;
46897;SDS011;32646;50.958;6.258;2023-04-25T00:32:39;9.43;;;4.38;;
46897;SDS011;32646;50.958;6.258;2023-04-25T00:35:06;8.98;;;3.47;;
46897;SDS011;32646;50.958;6.258;2023-04-25T00:37:33;15.25;;;3.42;;
46897;SDS011;32646;50.958;6.258;2023-04-25T00:40:00;11.18;;;3.30;;
46897;SDS011;32646;50.958;6.258;2023-04-25T00:42:27;11.65;;;3.90;;
46897;SDS011;32646;50.958;6.258;2023-04-25T00:44:54;12.35;;;3.63;;
46897;SDS011;32646;50.958;6.258;2023-04-25T00:47:21;9.18;;;3.28;;
46897;SDS011;32646;50.958;6.258;2023-04-25T00:49:49;12.55;;;3.67;;
46897;SDS011;32646;50.958;6.258;2023-04-25T00:52:16;11.20;;;4.43;;
46897;SDS011;32646;50.958;6.258;2023-04-25T00:54:43;9.73;;;4.03;;
46897;SDS011;32646;50.958;6.258;2023-04-25T00:57:09;8.85;;;3.58;;
46897;SDS011;32646;50.958;6.258;2023-04-25T00:59:36;11.40;;;3.58;;
46897;SDS011;32646;50.958;6.258;2023-04-25T01:02:04;10.35;;;4.35;;
46897;SDS011;32646;50.958;6.258;2023-04-25T01:04:30;7.28;;;3.30;;
46897;SDS011;32646;50.958;6.258;2023-04-25T01:06:57;12.90;;;3.97;;
46897;SDS011;32646;50.958;6.258;2023-04-25T01:09:24;10.68;;;3.90;;
46897;SDS011;32646;50.958;6.258;2023-04-25T01:11:51;9.75;;;3.67;;
46897;SDS011;32646;50.958;6.258;2023-04-25T01:14:18;11.68;;;3.70;;
46897;SDS011;32646;50.958;6.258;2023-04-25T01:16:44;12.10;;;4.13;;
46897;SDS011;32646;50.958;6.258;2023-04-25T01:19:11;11.68;;;3.25;;
46897;SDS011;32646;50.958;6.258;2023-04-25T01:21:42;12.27;;;3.35;;
46897;SDS011;32646;50.958;6.258;2023-04-25T01:24:08;7.28;;;2.95;;
46897;SDS011;32646;50.958;6.258;2023-04-25T01:26:35;13.82;;;3.72;;
46897;SDS011;32646;50.958;6.258;2023-04-25T01:29:03;13.60;;;3.58;;
46897;SDS011;32646;50.958;6.258;2023-04-25T01:31:30;14.27;;;4.05;;
46897;SDS011;32646;50.958;6.258;2023-04-25T01:33:58;8.35;;;3.55;;
46897;SDS011;32646;50.958;6.258;2023-04-25T01:36:25;12.63;;;4.40;;
46897;SDS011;32646;50.958;6.258;2023-04-25T01:38:52;11.05;;;3.75;;
46897;SDS011;32646;50.958;6.258;2023-04-25T01:41:19;11.52;;;3.45;;
46897;SDS011;32646;50.958;6.258;2023-04-25T01:43:45;11.15;;;3.38;;
46897;SDS011;32646;50.958;6.258;2023-04-25T01:46:12;10.23;;;3.50;;
46897;SDS011;32646;50.958;6.258;2023-04-25T01:48:39;10.75;;;3.88;;
46897;SDS011;32646;50.958;6.258;2023-04-25T01:51:05;11.07;;;3.50;;
46897;SDS011;32646;50.958;6.258;2023-04-25T01:53:32;9.32;;;3.60;;
46897;SDS011;32646;50.958;6.258;2023-04-25T01:55:59;13.73;;;3.72;;
46897;SDS011;32646;50.958;6.258;2023-04-25T01:58:26;10.68;;;3.55;;
46897;SDS011;32646;50.958;6.258;2023-04-25T02:00:52;8.27;;;3.45;;
46897;SDS011;32646;50.958;6.258;2023-04-25T02:03:19;14.63;;;4.20;;
46897;SDS011;32646;50.958;6.258;2023-04-25T02:05:45;11.15;;;3.45;;
46897;SDS011;32646;50.958;6.258;2023-04-25T02:08:12;11.63;;;3.58;;
46897;SDS011;32646;50.958;6.258;2023-04-25T02:10:39;14.57;;;4.22;;
46897;SDS011;32646;50.958;6.258;2023-04-25T02:13:05;13.20;;;3.72;;
46897;SDS011;32646;50.958;6.258;2023-04-25T02:15:32;11.57;;;3.45;;
46897;SDS011;32646;50.958;6.258;2023-04-25T02:17:59;11.05;;;3.88;;
46897;SDS011;32646;50.958;6.258;2023-04-25T02:20:25;10.85;;;4.00;;
46897;SDS011;32646;50.958;6.258;2023-04-25T02:22:53;10.90;;;3.67;;
46897;SDS011;32646;50.958;6.258;2023-04-25T02:25:19;15.88;;;3.78;;
46897;SDS011;32646;50.958;6.258;2023-04-25T02:27:47;14.38;;;3.47;;
46897;SDS011;32646;50.958;6.258;2023-04-25T02:30:14;9.00;;;3.17;;
46897;SDS011;32646;50.958;6.258;2023-04-25T02:32:40;11.82;;;3.47;;
46897;SDS011;32646;50.958;6.258;2023-04-25T02:35:07;9.52;;;3.63;;
46897;SDS011;32646;50.958;6.258;2023-04-25T02:37:34;11.23;;;3.25;;
46897;SDS011;32646;50.958;6.258;2023-04-25T02:40:05;10.45;;;3.30;;
46897;SDS011;32646;50.958;6.258;2023-04-25T02:42:32;11.68;;;3.63;;
46897;SDS011;32646;50.958;6.258;2023-04-25T02:44:58;13.57;;;4.22;;
46897;SDS011;32646;50.958;6.258;2023-04-25T02:47:25;9.73;;;3.30;;
46897;SDS011;32646;50.958;6.258;2023-04-25T02:49:52;14.20;;;3.58;;
46897;SDS011;32646;50.958;6.258;2023-04-25T02:52:18;12.35;;;3.22;;
46897;SDS011;32646;50.958;6.258;2023-04-25T02:54:45;13.27;;;3.60;;
46897;SDS011;32646;50.958;6.258;2023-04-25T02:57:11;11.07;;;3.63;;
46897;SDS011;32646;50.958;6.258;2023-04-25T02:59:38;9.00;;;3.75;;
46897;SDS011;32646;50.958;6.258;2023-04-25T03:02:04;10.82;;;3.33;;
46897;SDS011;32646;50.958;6.258;2023-04-25T03:04:31;8.30;;;3.78;;
46897;SDS011;32646;50.958;6.258;2023-04-25T03:06:58;10.50;;;3.55;;
46897;SDS011;32646;50.958;6.258;2023-04-25T03:09:24;10.80;;;4.25;;
46897;SDS011;32646;50.958;6.258;2023-04-25T03:11:51;13.32;;;4.70;;
46897;SDS011;32646;50.958;6.258;2023-04-25T03:14:17;9.05;;;3.45;;
46897;SDS011;32646;50.958;6.258;2023-04-25T03:16:44;10.00;;;3.65;;
46897;SDS011;32646;50.958;6.258;2023-04-25T03:19:11;13.43;;;4.20;;
46897;SDS011;32646;50.958;6.258;2023-04-25T03:21:37;12.18;;;3.75;;
46897;SDS011;32646;50.958;6.258;2023-04-25T03:24:04;9.35;;;3.10;;
46897;SDS011;32646;50.958;6.258;2023-04-25T03:26:31;10.82;;;3.90;;
46897;SDS011;32646;50.958;6.258;2023-04-25T03:28:57;10.95;;;3.30;;
46897;SDS011;32646;50.958;6.258;2023-04-25T03:31:24;7.72;;;3.67;;
46897;SDS011;32646;50.958;6.258;2023-04-25T03:33:50;9.32;;;3.83;;
46897;SDS011;32646;50.958;6.258;2023-04-25T03:36:17;9.43;;;3.30;;
46897;SDS011;32646;50.958;6.258;2023-04-25T03:38:44;9.45;;;3.67;;
46897;SDS011;32646;50.958;6.258;2023-04-25T03:41:11;12.35;;;3.58;;
46897;SDS011;32646;50.958;6.258;2023-04-25T03:43:37;9.48;;;3.92;;
46897;SDS011;32646;50.958;6.258;2023-04-25T03:46:04;13.35;;;3.50;;
46897;SDS011;32646;50.958;6.258;2023-04-25T03:48:30;10.77;;;4.07;;
46897;SDS011;32646;50.958;6.258;2023-04-25T03:50:57;10.00;;;3.47;;
46897;SDS011;32646;50.958;6.258;2023-04-25T03:53:23;13.85;;;3.40;;
46897;SDS011;32646;50.958;6.258;2023-04-25T03:55:50;8.65;;;3.30;;
46897;SDS011;32646;50.958;6.258;2023-04-25T03:58:17;7.35;;;3.53;;
46897;SDS011;32646;50.958;6.258;2023-04-25T04:00:44;13.40;;;3.97;;
46897;SDS011;32646;50.958;6.258;2023-04-25T04:03:10;8.98;;;3.30;;
46897;SDS011;32646;50.958;6.258;2023-04-25T04:05:40;16.33;;;3.88;;
46897;SDS011;32646;50.958;6.258;2023-04-25T04:08:08;8.27;;;3.10;;
46897;SDS011;32646;50.958;6.258;2023-04-25T04:10:35;13.75;;;3.90;;
46897;SDS011;32646;50.958;6.258;2023-04-25T04:13:01;11.40;;;4.00;;
46897;SDS011;32646;50.958;6.258;2023-04-25T04:15:28;14.05;;;3.78;;
46897;SDS011;32646;50.958;6.258;2023-04-25T04:17:55;9.73;;;3.50;;
46897;SDS011;32646;50.958;6.258;2023-04-25T04:20:22;13.07;;;3.83;;
46897;SDS011;32646;50.958;6.258;2023-04-25T04:22:49;16.20;;;4.32;;
46897;SDS011;32646;50.958;6.258;2023-04-25T04:25:15;10.85;;;2.97;;
46897;SDS011;32646;50.958;6.258;2023-04-25T04:27:42;9.90;;;3.30;;
46897;SDS011;32646;50.958;6.258;2023-04-25T04:30:08;18.63;;;3.75;;
46897;SDS011;32646;50.958;6.258;2023-04-25T04:32:35;8.00;;;3.13;;
46897;SDS011;32646;50.958;6.258;2023-04-25T04:35:01;12.10;;;3.58;;
46897;SDS011;32646;50.958;6.258;2023-04-25T04:37:28;13.23;;;3.97;;
46897;SDS011;32646;50.958;6.258;2023-04-25T04:39:54;10.70;;;3.45;;
46897;SDS011;32646;50.958;6.258;2023-04-25T04:42:21;9.00;;;3.42;;
46897;SDS011;32646;50.958;6.258;2023-04-25T04:44:48;14.40;;;4.35;;
46897;SDS011;32646;50.958;6.258;2023-04-25T04:47:14;8.57;;;3.72;;
46897;SDS011;32646;50.958;6.258;2023-04-25T04:49:41;11.38;;;3.92;;
46897;SDS011;32646;50.958;6.258;2023-04-25T04:52:07;11.00;;;3.75;;
46897;SDS011;32646;50.958;6.258;2023-04-25T04:54:34;13.00;;;4.18;;
46897;SDS011;32646;50.958;6.258;2023-04-25T04:57:01;13.93;;;3.90;;
46897;SDS011;32646;50.958;6.258;2023-04-25T04:59:27;9.02;;;2.88;;
46897;SDS011;32646;50.958;6.258;2023-04-25T05:01:54;9.20;;;4.03;;
46897;SDS011;32646;50.958;6.258;2023-04-25T05:04:20;11.95;;;3.40;;
46897;SDS011;32646;50.958;6.258;2023-04-25T05:06:47;12.02;;;3.55;;
46897;SDS011;32646;50.958;6.258;2023-04-25T05:09:14;15.50;;;4.32;;
46897;SDS011;32646;50.958;6.258;2023-04-25T05:11:41;13.45;;;3.47;;
46897;SDS011;32646;50.958;6.258;2023-04-25T05:14:07;11.63;;;3.55;;
46897;SDS011;32646;50.958;6.258;2023-04-25T05:16:34;15.68;;;3.85;;
46897;SDS011;32646;50.958;6.258;2023-04-25T05:19:00;12.23;;;3.75;;
46897;SDS011;32646;50.958;6.258;2023-04-25T05:21:27;10.27;;;3.25;;
46897;SDS011;32646;50.958;6.258;2023-04-25T05:23:53;12.57;;;3.45;;
46897;SDS011;32646;50.958;6.258;2023-04-25T05:26:20;10.95;;;3.63;;
46897;SDS011;32646;50.958;6.258;2023-04-25T05:28:47;10.15;;;3.20;;
46897;SDS011;32646;50.958;6.258;2023-04-25T05:31:13;14.45;;;3.60;;
46897;SDS011;32646;50.958;6.258;2023-04-25T05:33:40;17.48;;;3.72;;
46897;SDS011;32646;50.958;6.258;2023-04-25T05:36:06;10.20;;;3.97;;
46897;SDS011;32646;50.958;6.258;2023-04-25T05:38:33;9.60;;;3.30;;
46897;SDS011;32646;50.958;6.258;2023-04-25T05:41:00;8.00;;;4.07;;
46897;SDS011;32646;50.958;6.258;2023-04-25T05:43:27;14.00;;;3.35;;
46897;SDS011;32646;50.958;6.258;2023-04-25T05:45:53;10.40;;;3.10;;
46897;SDS011;32646;50.958;6.258;2023-04-25T05:48:20;12.70;;;3.40;;
46897;SDS011;32646;50.958;6.258;2023-04-25T05:50:46;14.85;;;4.28;;
46897;SDS011;32646;50.958;6.258;2023-04-25T05:53:13;9.25;;;3.20;;
46897;SDS011;32646;50.958;6.258;2023-04-25T05:55:39;9.38;;;3.70;;
46897;SDS011;32646;50.958;6.258;2023-04-25T05:58:06;10.50;;;3.42;;
46897;SDS011;32646;50.958;6.258;2023-04-25T06:00:32;10.60;;;3.45;;
46897;SDS011;32646;50.958;6.258;2023-04-25T06:02:59;10.52;;;3.10;;
46897;SDS011;32646;50.958;6.258;2023-04-25T06:05:26;9.25;;;3.35;;
46897;SDS011;32646;50.958;6.258;2023-04-25T06:07:53;13.50;;;3.88;;
46897;SDS011;32646;50.958;6.258;2023-04-25T06:10:19;11.68;;;3.35;;
46897;SDS011;32646;50.958;6.258;2023-04-25T06:12:47;11.57;;;4.63;;
46897;SDS011;32646;50.958;6.258;2023-04-25T06:15:13;12.07;;;2.92;;
46897;SDS011;32646;50.958;6.258;2023-04-25T06:17:54;11.45;;;3.95;;
46897;SDS011;32646;50.958;6.258;2023-04-25T06:20:21;12.68;;;3.55;;
46897;SDS011;32646;50.958;6.258;2023-04-25T06:22:47;12.43;;;3.53;;
46897;SDS011;32646;50.958;6.258;2023-04-25T06:25:14;14.15;;;4.18;;
46897;SDS011;32646;50.958;6.258;2023-04-25T06:27:41;10.85;;;2.90;;
46897;SDS011;32646;50.958;6.258;2023-04-25T06:30:08;9.73;;;3.67;;
46897;SDS011;32646;50.958;6.258;2023-04-25T06:32:34;10.80;;;3.28;;
46897;SDS011;32646;50.958;6.258;2023-04-25T06:35:01;10.45;;;3.38;;
46897;SDS011;32646;50.958;6.258;2023-04-25T06:37:28;11.68;;;3.05;;
46897;SDS011;32646;50.958;6.258;2023-04-25T06:39:54;11.65;;;3.25;;
46897;SDS011;32646;50.958;6.258;2023-04-25T06:42:21;9.93;;;3.45;;
46897;SDS011;32646;50.958;6.258;2023-04-25T06:44:47;8.95;;;2.85;;
46897;SDS011;32646;50.958;6.258;2023-04-25T06:47:14;8.02;;;2.88;;
46897;SDS011;32646;50.958;6.258;2023-04-25T06:49:41;8.93;;;2.60;;
46897;SDS011;32646;50.958;6.258;2023-04-25T06:52:07;9.45;;;3.15;;
46897;SDS011;32646;50.958;6.258;2023-04-25T06:54:34;11.38;;;3.22;;
46897;SDS011;32646;50.958;6.258;2023-04-25T06:57:00;10.30;;;3.00;;
46897;SDS011;32646;50.958;6.258;2023-04-25T06:59:27;8.38;;;2.70;;
46897;SDS011;32646;50.958;6.258;2023-04-25T07:01:54;9.43;;;2.70;;
46897;SDS011;32646;50.958;6.258;2023-04-25T07:04:20;11.57;;;2.90;;
46897;SDS011;32646;50.958;6.258;2023-04-25T07:06:47;9.55;;;2.50;;
46897;SDS011;32646;50.958;6.258;2023-04-25T07:09:14;10.25;;;2.88;;
46897;SDS011;32646;50.958;6.258;2023-04-25T07:11:40;9.07;;;2.92;;
46897;SDS011;32646;50.958;6.258;2023-04-25T07:14:07;11.80;;;2.85;;
46897;SDS011;32646;50.958;6.258;2023-04-25T07:16:33;8.57;;;2.53;;
46897;SDS011;32646;50.958;6.258;2023-04-25T07:19:00;7.18;;;2.30;;
46897;SDS011;32646;50.958;6.258;2023-04-25T07:21:27;9.00;;;3.25;;
46897;SDS011;32646;50.958;6.258;2023-04-25T07:23:54;12.38;;;2.70;;
46897;SDS011;32646;50.958;6.258;2023-04-25T07:26:20;11.00;;;3.38;;
46897;SDS011;32646;50.958;6.258;2023-04-25T07:28:47;8.40;;;2.30;;
46897;SDS011;32646;50.958;6.258;2023-04-25T07:31:13;9.15;;;2.60;;
46897;SDS011;32646;50.958;6.258;2023-04-25T07:33:40;11.05;;;2.92;;
46897;SDS011;32646;50.958;6.258;2023-04-25T07:36:07;8.95;;;2.55;;
46897;SDS011;32646;50.958;6.258;2023-04-25T07:38:33;7.88;;;2.88;;
46897;SDS011;32646;50.958;6.258;2023-04-25T07:41:00;8.38;;;2.30;;
46897;SDS011;32646;50.958;6.258;2023-04-25T07:43:27;9.23;;;2.30;;
46897;SDS011;32646;50.958;6.258;2023-04-25T07:45:53;9.50;;;2.38;;
46897;SDS011;32646;50.958;6.258;2023-04-25T07:48:20;6.38;;;2.35;;
46897;SDS011;32646;50.958;6.258;2023-04-25T07:50:46;6.70;;;2.13;;
46897;SDS011;32646;50.958;6.258;2023-04-25T07:53:13;6.18;;;1.58;;
46897;SDS011;32646;50.958;6.258;2023-04-25T07:55:39;6.32;;;1.73;;
46897;SDS011;32646;50.958;6.258;2023-04-25T07:58:06;12.23;;;2.15;;
46897;SDS011;32646;50.958;6.258;2023-04-25T08:00:33;5.88;;;1.60;;
46897;SDS011;32646;50.958;6.258;2023-04-25T08:03:00;5.47;;;2.05;;
46897;SDS011;32646;50.958;6.258;2023-04-25T08:05:27;12.88;;;2.17;;
46897;SDS011;32646;50.958;6.258;2023-04-25T08:07:54;9.85;;;2.40;;
46897;SDS011;32646;50.958;6.258;2023-04-25T08:10:20;5.30;;;1.70;;
46897;SDS011;32646;50.958;6.258;2023-04-25T08:12:47;8.45;;;2.00;;
46897;SDS011;32646;50.958;6.258;2023-04-25T08:15:14;6.93;;;1.40;;
46897;SDS011;32646;50.958;6.258;2023-04-25T08:17:41;3.83;;;1.52;;
46897;SDS011;32646;50.958;6.258;2023-04-25T08:20:07;6.68;;;1.58;;
46897;SDS011;32646;50.958;6.258;2023-04-25T08:22:34;6.35;;;1.98;;
46897;SDS011;32646;50.958;6.258;2023-04-25T08:25:01;5.22;;;1.67;;
46897;SDS011;32646;50.958;6.258;2023-04-25T08:27:27;7.25;;;2.35;;
46897;SDS011;32646;50.958;6.258;2023-04-25T08:29:54;7.65;;;2.03;;
46897;SDS011;32646;50.958;6.258;2023-04-25T08:32:20;8.15;;;2.30;;
46897;SDS011;32646;50.958;6.258;2023-04-25T08:34:47;5.82;;;2.17;;
46897;SDS011;32646;50.958;6.258;2023-04-25T08:37:13;9.27;;;2.45;;
46897;SDS011;32646;50.958;6.258;2023-04-25T08:39:40;7.78;;;2.20;;
46897;SDS011;32646;50.958;6.258;2023-04-25T08:42:06;6.28;;;2.55;;
46897;SDS011;32646;50.958;6.258;2023-04-25T08:44:33;9.95;;;2.10;;
46897;SDS011;32646;50.958;6.258;2023-04-25T08:47:04;6.35;;;2.25;;
46897;SDS011;32646;50.958;6.258;2023-04-25T08:49:34;7.38;;;2.00;;
46897;SDS011;32646;50.958;6.258;2023-04-25T08:52:02;7.90;;;2.38;;
46897;SDS011;32646;50.958;6.258;2023-04-25T08:54:29;7.32;;;2.70;;
46897;SDS011;32646;50.958;6.258;2023-04-25T08:57:01;8.15;;;2.30;;
46897;SDS011;32646;50.958;6.258;2023-04-25T08:59:29;7.55;;;2.42;;
46897;SDS011;32646;50.958;6.258;2023-04-25T09:01:56;7.70;;;2.20;;
46897;SDS011;32646;50.958;6.258;2023-04-25T09:04:23;10.50;;;2.10;;
46897;SDS011;32646;50.958;6.258;2023-04-25T09:06:50;7.22;;;2.30;;
46897;SDS011;32646;50.958;6.258;2023-04-25T09:09:17;7.80;;;2.80;;
46897;SDS011;32646;50.958;6.258;2023-04-25T09:11:43;6.93;;;2.22;;
46897;SDS011;32646;50.958;6.258;2023-04-25T09:14:11;13.25;;;3.08;;
46897;SDS011;32646;50.958;6.258;2023-04-25T09:19:24;6.85;;;2.22;;
46897;SDS011;32646;50.958;6.258;2023-04-25T09:22:05;8.70;;;2.10;;
46897;SDS011;32646;50.958;6.258;2023-04-25T09:24:37;8.50;;;2.03;;
46897;SDS011;32646;50.958;6.258;2023-04-25T09:27:12;7.80;;;2.22;;
46897;SDS011;32646;50.958;6.258;2023-04-25T09:29:43;6.47;;;2.00;;
46897;SDS011;32646;50.958;6.258;2023-04-25T09:34:46;7.30;;;2.80;;
46897;SDS011;32646;50.958;6.258;2023-04-25T09:37:16;8.18;;;2.00;;
46897;SDS011;32646;50.958;6.258;2023-04-25T09:39:44;7.68;;;2.28;;
46897;SDS011;32646;50.958;6.258;2023-04-25T09:42:11;6.70;;;2.35;;
46897;SDS011;32646;50.958;6.258;2023-04-25T09:44:41;8.90;;;2.35;;
46897;SDS011;32646;50.958;6.258;2023-04-25T09:47:10;7.53;;;2.83;;
46897;SDS011;32646;50.958;6.258;2023-04-25T09:49:38;6.75;;;2.33;;
46897;SDS011;32646;50.958;6.258;2023-04-25T09:52:09;8.60;;;2.08;;
46897;SDS011;32646;50.958;6.258;2023-04-25T09:54:40;5.18;;;1.38;;
46897;SDS011;32646;50.958;6.258;2023-04-25T09:57:09;7.78;;;2.03;;
46897;SDS011;32646;50.958;6.258;2023-04-25T09:59:44;7.10;;;1.67;;
46897;SDS011;32646;50.958;6.258;2023-04-25T10:02:11;7.10;;;1.83;;
46897;SDS011;32646;50.958;6.258;2023-04-25T10:04:40;4.63;;;1.65;;
46897;SDS011;32646;50.958;6.258;2023-04-25T10:07:08;6.72;;;1.52;;
46897;SDS011;32646;50.958;6.258;2023-04-25T10:09:36;4.60;;;1.83;;
46897;SDS011;32646;50.958;6.258;2023-04-25T10:12:04;5.88;;;1.90;;
46897;SDS011;32646;50.958;6.258;2023-04-25T10:14:31;7.55;;;1.67;;
46897;SDS011;32646;50.958;6.258;2023-04-25T10:16:58;5.35;;;1.80;;
46897;SDS011;32646;50.958;6.258;2023-04-25T10:19:26;5.07;;;2.00;;
46897;SDS011;32646;50.958;6.258;2023-04-25T10:24:28;8.60;;;2.13;;
46897;SDS011;32646;50.958;6.258;2023-04-25T10:26:55;6.03;;;1.75;;
46897;SDS011;32646;50.958;6.258;2023-04-25T10:29:24;8.25;;;1.83;;
46897;SDS011;32646;50.958;6.258;2023-04-25T10:31:51;4.30;;;1.85;;
46897;SDS011;32646;50.958;6.258;2023-04-25T10:34:19;8.00;;;2.55;;
46897;SDS011;32646;50.958;6.258;2023-04-25T10:36:51;8.90;;;1.92;;
46897;SDS011;32646;50.958;6.258;2023-04-25T10:39:22;6.22;;;1.80;;
46897;SDS011;32646;50.958;6.258;2023-04-25T10:41:55;7.30;;;1.63;;
46897;SDS011;32646;50.958;6.258;2023-04-25T10:44:27;6.50;;;1.60;;
46897;SDS011;32646;50.958;6.258;2023-04-25T10:46:58;5.88;;;1.60;;
46897;SDS011;32646;50.958;6.258;2023-04-25T10:54:52;6.18;;;2.30;;
46897;SDS011;32646;50.958;6.258;2023-04-25T10:57:39;4.60;;;1.60;;
46897;SDS011;32646;50.958;6.258;2023-04-25T11:00:08;4.32;;;1.42;;
46897;SDS011;32646;50.958;6.258;2023-04-25T11:02:47;7.25;;;1.83;;
46897;SDS011;32646;50.958;6.258;2023-04-25T11:07:52;5.30;;;1.70;;
46897;SDS011;32646;50.958;6.258;2023-04-25T11:10:26;9.65;;;1.92;;
46897;SDS011;32646;50.958;6.258;2023-04-25T11:12:53;6.95;;;1.90;;
46897;SDS011;32646;50.958;6.258;2023-04-25T11:15:20;5.22;;;2.17;;
46897;SDS011;32646;50.958;6.258;2023-04-25T11:17:46;8.68;;;2.53;;
46897;SDS011;32646;50.958;6.258;2023-04-25T11:20:13;6.72;;;1.88;;
46897;SDS011;32646;50.958;6.258;2023-04-25T11:22:40;7.43;;;1.52;;
46897;SDS011;32646;50.958;6.258;2023-04-25T11:25:08;6.55;;;2.03;;
46897;SDS011;32646;50.958;6.258;2023-04-25T11:27:55;8.88;;;1.63;;
46897;SDS011;32646;50.958;6.258;2023-04-25T11:30:24;6.38;;;1.55;;
46897;SDS011;32646;50.958;6.258;2023-04-25T11:32:51;7.32;;;1.85;;
46897;SDS011;32646;50.958;6.258;2023-04-25T11:35:19;3.90;;;1.40;;
46897;SDS011;32646;50.958;6.258;2023-04-25T11:37:46;4.63;;;1.70;;
46897;SDS011;32646;50.958;6.258;2023-04-25T11:40:13;8.32;;;1.90;;
46897;SDS011;32646;50.958;6.258;2023-04-25T11:42:43;7.07;;;1.73;;
46897;SDS011;32646;50.958;6.258;2023-04-25T11:45:10;6.95;;;1.58;;
46897;SDS011;32646;50.958;6.258;2023-04-25T11:47:38;6.10;;;1.40;;
46897;SDS011;32646;50.958;6.258;2023-04-25T11:50:06;6.22;;;1.65;;
46897;SDS011;32646;50.958;6.258;2023-04-25T11:55:13;5.40;;;1.60;;
46897;SDS011;32646;50.958;6.258;2023-04-25T11:57:42;4.45;;;1.75;;
46897;SDS011;32646;50.958;6.258;2023-04-25T12:00:13;4.28;;;1.77;;
46897;SDS011;32646;50.958;6.258;2023-04-25T12:02:44;5.70;;;1.58;;
46897;SDS011;32646;50.958;6.258;2023-04-25T12:05:19;6.15;;;1.65;;
46897;SDS011;32646;50.958;6.258;2023-04-25T12:07:58;5.25;;;1.60;;
46897;SDS011;32646;50.958;6.258;2023-04-25T12:10:36;5.28;;;1.45;;
46897;SDS011;32646;50.958;6.258;2023-04-25T12:13:17;5.60;;;1.50;;
46897;SDS011;32646;50.958;6.258;2023-04-25T12:15:45;5.57;;;1.55;;
46897;SDS011;32646;50.958;6.258;2023-04-25T12:18:12;5.07;;;1.60;;
46897;SDS011;32646;50.958;6.258;2023-04-25T12:20:38;4.70;;;1.30;;
46897;SDS011;32646;50.958;6.258;2023-04-25T12:23:05;5.32;;;1.60;;
46897;SDS011;32646;50.958;6.258;2023-04-25T12:25:40;6.82;;;1.35;;
46897;SDS011;32646;50.958;6.258;2023-04-25T12:28:15;6.45;;;1.30;;
46897;SDS011;32646;50.958;6.258;2023-04-25T12:33:23;6.68;;;1.95;;
46897;SDS011;32646;50.958;6.258;2023-04-25T12:35:51;5.50;;;1.45;;
46897;SDS011;32646;50.958;6.258;2023-04-25T12:38:25;5.50;;;1.65;;
46897;SDS011;32646;50.958;6.258;2023-04-25T12:40:52;7.45;;;1.60;;
46897;SDS011;32646;50.958;6.258;2023-04-25T12:43:19;5.38;;;1.52;;
46897;SDS011;32646;50.958;6.258;2023-04-25T12:45:50;4.97;;;1.70;;
46897;SDS011;32646;50.958;6.258;2023-04-25T12:48:17;9.23;;;1.70;;
46897;SDS011;32646;50.958;6.258;2023-04-25T12:50:45;8.77;;;1.77;;
46897;SDS011;32646;50.958;6.258;2023-04-25T12:53:12;7.18;;;2.10;;
46897;SDS011;32646;50.958;6.258;2023-04-25T12:55:38;7.80;;;1.83;;
46897;SDS011;32646;50.958;6.258;2023-04-25T12:58:05;6.82;;;1.90;;
46897;SDS011;32646;50.958;6.258;2023-04-25T13:00:31;5.93;;;2.15;;
46897;SDS011;32646;50.958;6.258;2023-04-25T13:02:58;6.75;;;1.70;;
46897;SDS011;32646;50.958;6.258;2023-04-25T13:05:25;7.78;;;1.75;;
46897;SDS011;32646;50.958;6.258;2023-04-25T13:07:51;8.10;;;1.90;;
46897;SDS011;32646;50.958;6.258;2023-04-25T13:10:18;5.38;;;1.65;;
46897;SDS011;32646;50.958;6.258;2023-04-25T13:12:45;7.85;;;2.10;;
46897;SDS011;32646;50.958;6.258;2023-04-25T13:15:11;3.58;;;1.40;;
46897;SDS011;32646;50.958;6.258;2023-04-25T13:17:38;7.57;;;1.90;;
46897;SDS011;32646;50.958;6.258;2023-04-25T13:20:05;6.38;;;1.50;;
46897;SDS011;32646;50.958;6.258;2023-04-25T13:22:32;3.45;;;1.33;;
46897;SDS011;32646;50.958;6.258;2023-04-25T13:24:58;3.95;;;1.10;;
46897;SDS011;32646;50.958;6.258;2023-04-25T13:27:25;3.58;;;1.17;;
46897;SDS011;32646;50.958;6.258;2023-04-25T13:29:51;4.50;;;1.77;;
46897;SDS011;32646;50.958;6.258;2023-04-25T13:32:18;5.60;;;1.27;;
46897;SDS011;32646;50.958;6.258;2023-04-25T13:34:44;5.60;;;1.33;;
46897;SDS011;32646;50.958;6.258;2023-04-25T13:37:11;4.20;;;1.23;;
46897;SDS011;32646;50.958;6.258;2023-04-25T13:39:37;4.68;;;1.40;;
46897;SDS011;32646;50.958;6.258;2023-04-25T13:42:04;2.70;;;0.90;;
46897;SDS011;32646;50.958;6.258;2023-04-25T13:44:31;4.55;;;1.55;;
46897;SDS011;32646;50.958;6.258;2023-04-25T13:46:57;3.85;;;1.75;;
46897;SDS011;32646;50.958;6.258;2023-04-25T13:49:24;5.18;;;1.60;;
46897;SDS011;32646;50.958;6.258;2023-04-25T13:51:50;3.85;;;1.20;;
46897;SDS011;32646;50.958;6.258;2023-04-25T13:54:17;7.72;;;2.03;;
46897;SDS011;32646;50.958;6.258;2023-04-25T13:56:43;5.22;;;1.30;;
46897;SDS011;32646;50.958;6.258;2023-04-25T13:59:10;5.38;;;1.48;;
46897;SDS011;32646;50.958;6.258;2023-04-25T14:01:36;4.45;;;1.80;;
46897;SDS011;32646;50.958;6.258;2023-04-25T14:04:03;4.03;;;1.40;;
46897;SDS011;32646;50.958;6.258;2023-04-25T14:06:30;7.75;;;1.30;;
46897;SDS011;32646;50.958;6.258;2023-04-25T14:08:58;6.32;;;1.27;;
46897;SDS011;32646;50.958;6.258;2023-04-25T14:11:24;6.28;;;1.50;;
46897;SDS011;32646;50.958;6.258;2023-04-25T14:13:51;5.80;;;1.42;;
46897;SDS011;32646;50.958;6.258;2023-04-25T14:16:18;4.45;;;1.50;;
46897;SDS011;32646;50.958;6.258;2023-04-25T14:18:45;4.93;;;1.58;;
46897;SDS011;32646;50.958;6.258;2023-04-25T14:21:12;5.95;;;1.60;;
46897;SDS011;32646;50.958;6.258;2023-04-25T14:23:38;6.80;;;1.77;;
46897;SDS011;32646;50.958;6.258;2023-04-25T14:26:05;4.25;;;1.50;;
46897;SDS011;32646;50.958;6.258;2023-04-25T14:28:31;5.40;;;1.60;;
46897;SDS011;32646;50.958;6.258;2023-04-25T14:30:58;5.25;;;1.30;;
46897;SDS011;32646;50.958;6.258;2023-04-25T14:33:24;3.53;;;1.05;;
46897;SDS011;32646;50.958;6.258;2023-04-25T14:35:51;5.05;;;1.20;;
46897;SDS011;32646;50.958;6.258;2023-04-25T14:38:17;4.75;;;1.50;;
46897;SDS011;32646;50.958;6.258;2023-04-25T14:40:44;5.00;;;1.40;;
46897;SDS011;32646;50.958;6.258;2023-04-25T14:43:11;6.57;;;1.42;;
46897;SDS011;32646;50.958;6.258;2023-04-25T14:45:37;4.70;;;1.50;;
46897;SDS011;32646;50.958;6.258;2023-04-25T14:48:04;4.20;;;1.45;;
46897;SDS011;32646;50.958;6.258;2023-04-25T14:50:30;4.15;;;1.25;;
46897;SDS011;32646;50.958;6.258;2023-04-25T14:52:57;3.92;;;1.40;;
46897;SDS011;32646;50.958;6.258;2023-04-25T14:55:24;3.85;;;1.10;;
46897;SDS011;32646;50.958;6.258;2023-04-25T14:57:50;3.80;;;1.42;;
46897;SDS011;32646;50.958;6.258;2023-04-25T15:00:18;3.97;;;1.17;;
46897;SDS011;32646;50.958;6.258;2023-04-25T15:02:45;4.88;;;1.23;;
46897;SDS011;32646;50.958;6.258;2023-04-25T15:05:12;5.15;;;1.40;;